createdAt,value
2018-07-15T00:01:48.712Z,100297.00
2018-07-15T00:06:52.059Z,100296.00
2018-07-15T00:11:55.458Z,100292.00
2018-07-15T00:16:58.719Z,100287.00
2018-07-15T00:22:01.784Z,100283.00
2018-07-15T00:27:05.315Z,100288.00
2018-07-15T00:32:08.436Z,100283.00
2018-07-15T00:37:11.670Z,100282.00
2018-07-15T00:42:14.676Z,100283.00
2018-07-15T00:47:18.013Z,100283.00
2018-07-15T00:53:21.329Z,100281.00
2018-07-15T00:58:24.660Z,100291.00
2018-07-15T01:03:27.805Z,100289.00
2018-07-15T01:08:31.739Z,100287.00
2018-07-15T01:13:34.767Z,100284.00
2018-07-15T01:18:37.790Z,100281.00
2018-07-15T01:23:40.860Z,100272.00
2018-07-15T01:28:44.037Z,100267.00
2018-07-15T01:33:47.227Z,100269.00
2018-07-15T01:38:51.170Z,100273.00
2018-07-15T01:43:54.178Z,100263.00
2018-07-15T01:48:57.142Z,100261.00
2018-07-15T01:54:00.119Z,100258.00
2018-07-15T01:59:03.217Z,100258.00
2018-07-15T02:04:06.582Z,100251.00
2018-07-15T02:09:09.774Z,100256.00
2018-07-15T02:14:12.772Z,100256.00
2018-07-15T02:19:15.772Z,100254.00
2018-07-15T02:24:18.765Z,100249.00
2018-07-15T02:29:22.007Z,100253.00
2018-07-15T02:34:25.065Z,100248.00
2018-07-15T02:39:28.016Z,100250.00
2018-07-15T02:44:31.237Z,100262.00
2018-07-15T02:49:34.208Z,100260.00
2018-07-15T02:54:37.833Z,100257.00
2018-07-15T02:59:41.376Z,100254.00
2018-07-15T03:04:44.408Z,100250.00
2018-07-15T03:09:47.398Z,100244.00
2018-07-15T03:14:50.503Z,100247.00
2018-07-15T03:19:53.559Z,100246.00
2018-07-15T03:24:56.613Z,100249.00
2018-07-15T03:29:59.587Z,100243.00
2018-07-15T03:35:02.626Z,100245.00
2018-07-15T03:40:05.656Z,100252.00
2018-07-15T03:45:08.787Z,100247.00
2018-07-15T03:50:11.803Z,100245.00
2018-07-15T03:55:14.820Z,100241.00
2018-07-15T04:00:18.006Z,100251.00
2018-07-15T04:05:21.040Z,100241.00
2018-07-15T04:10:24.025Z,100241.00
2018-07-15T04:15:27.105Z,100225.00
2018-07-15T04:20:30.386Z,100231.00
2018-07-15T04:25:33.996Z,100230.00
2018-07-15T04:30:36.989Z,100233.00
2018-07-15T04:35:40.136Z,100227.00
2018-07-15T04:40:43.172Z,100230.00
2018-07-15T04:45:46.373Z,100246.00
2018-07-15T04:50:49.390Z,100245.00
2018-07-15T04:55:52.414Z,100247.00
2018-07-15T05:00:55.483Z,100239.00
2018-07-15T05:05:58.529Z,100250.00
2018-07-15T05:11:01.585Z,100252.00
2018-07-15T05:16:04.771Z,100253.00
2018-07-15T05:21:07.849Z,100264.00
2018-07-15T05:26:10.924Z,100262.00
2018-07-15T05:31:13.983Z,100275.00
2018-07-15T05:36:17.046Z,100277.00
2018-07-15T05:41:20.092Z,100277.00
2018-07-15T05:46:23.131Z,100288.00
2018-07-15T05:51:26.200Z,100287.00
2018-07-15T05:56:29.675Z,100277.00
2018-07-15T06:01:32.729Z,100285.00
2018-07-15T06:06:35.829Z,100298.00
2018-07-15T06:11:38.871Z,100295.00
2018-07-15T06:16:41.928Z,100297.00
2018-07-15T06:21:44.955Z,100300.00
2018-07-15T06:26:48.213Z,100298.00
2018-07-15T06:31:51.332Z,100274.00
2018-07-15T06:36:54.430Z,100295.00
2018-07-15T06:41:57.468Z,100299.00
2018-07-15T06:47:00.623Z,100308.00
2018-07-15T06:52:03.716Z,100305.00
2018-07-15T06:57:06.778Z,100318.00
2018-07-15T07:02:09.816Z,100310.00
2018-07-15T07:07:12.898Z,100296.00
2018-07-15T07:12:15.980Z,100313.00
2018-07-15T07:17:18.995Z,100306.00
2018-07-15T07:22:22.085Z,100304.00
2018-07-15T07:27:25.121Z,100306.00
2018-07-15T07:32:28.398Z,100308.00
2018-07-15T07:37:31.711Z,100295.00
2018-07-15T07:42:34.921Z,100296.00
2018-07-15T07:47:37.970Z,100295.00
2018-07-15T07:52:41.172Z,100296.00
2018-07-15T07:57:44.417Z,100295.00
2018-07-15T08:02:47.759Z,100288.00
2018-07-15T08:07:50.983Z,100296.00
2018-07-15T08:12:54.034Z,100292.00
2018-07-15T08:17:57.165Z,100287.00
2018-07-15T08:23:00.475Z,100293.00
2018-07-15T08:28:03.618Z,100294.00
2018-07-15T08:33:06.602Z,100281.00
2018-07-15T08:38:09.729Z,100289.00
2018-07-15T08:43:12.780Z,100283.00
2018-07-15T08:48:15.776Z,100303.00
2018-07-15T08:53:18.830Z,100306.00
2018-07-15T08:58:21.819Z,100294.00
2018-07-15T09:03:24.874Z,100302.00
2018-07-15T09:08:27.826Z,100300.00
2018-07-15T09:13:30.863Z,100301.00
2018-07-15T09:18:33.925Z,100300.00
2018-07-15T09:23:36.980Z,100296.00
2018-07-15T09:28:40.243Z,100306.00
2018-07-15T09:33:43.328Z,100303.00
2018-07-15T09:38:46.651Z,100314.00
2018-07-15T09:43:49.913Z,100309.00
2018-07-15T09:48:52.957Z,100316.00
2018-07-15T09:53:55.988Z,100316.00
2018-07-15T09:58:59.012Z,100307.00
2018-07-15T10:04:02.098Z,100308.00
2018-07-15T10:09:06.449Z,100298.00
2018-07-15T10:14:09.462Z,100296.00
2018-07-15T10:19:12.608Z,100290.00
2018-07-15T10:24:15.635Z,100281.00
2018-07-15T10:29:18.848Z,100274.00
2018-07-15T10:34:22.103Z,100272.00
2018-07-15T10:39:25.079Z,100261.00
2018-07-15T10:44:28.142Z,100246.00
2018-07-15T10:49:31.168Z,100232.00
2018-07-15T10:54:34.419Z,100226.00
2018-07-15T10:59:37.485Z,100212.00
2018-07-15T11:04:40.554Z,100212.00
2018-07-15T11:09:43.608Z,100209.00
2018-07-15T11:14:47.481Z,100204.00
2018-07-15T11:19:50.503Z,100201.00
2018-07-15T11:24:53.735Z,100194.00
2018-07-15T11:29:56.915Z,100185.00
2018-07-15T11:34:59.981Z,100188.00
2018-07-15T11:40:03.068Z,100179.00
2018-07-15T11:45:06.363Z,100180.00
2018-07-15T11:50:09.408Z,100184.00
2018-07-15T11:55:12.548Z,100172.00
2018-07-15T12:00:15.808Z,100165.00
2018-07-15T12:05:18.944Z,100156.00
2018-07-15T12:10:21.963Z,100162.00
2018-07-15T12:15:25.203Z,100144.00
2018-07-15T12:20:28.255Z,100146.00
2018-07-15T12:25:31.322Z,100153.00
2018-07-15T12:30:34.731Z,100142.00
2018-07-15T12:35:37.916Z,100126.00
2018-07-15T12:40:40.972Z,100121.00
2018-07-15T12:45:44.076Z,100113.00
2018-07-15T12:50:47.220Z,100100.00
2018-07-15T12:55:50.468Z,100100.00
2018-07-15T13:00:53.644Z,100087.00
2018-07-15T13:05:57.080Z,100087.00
2018-07-15T13:11:00.463Z,100084.00
2018-07-15T13:16:03.742Z,100078.00
2018-07-15T13:21:06.892Z,100067.00
2018-07-15T13:26:10.339Z,100065.00
2018-07-15T13:31:13.574Z,100067.00
2018-07-15T13:36:16.844Z,100067.00
2018-07-15T13:41:19.992Z,100058.00
2018-07-15T13:46:23.671Z,100063.00
2018-07-15T13:51:26.751Z,100059.00
2018-07-15T13:56:29.916Z,100058.00
2018-07-15T14:01:32.932Z,100059.00
2018-07-15T14:06:35.924Z,100047.00
2018-07-15T14:11:38.914Z,100043.00
2018-07-15T14:16:41.919Z,100036.00
2018-07-15T14:21:45.106Z,100039.00
2018-07-15T14:26:48.167Z,100034.00
2018-07-15T14:31:51.203Z,100049.00
2018-07-15T14:36:54.385Z,100036.00
2018-07-15T14:41:57.460Z,100032.00
2018-07-15T14:47:00.554Z,100040.00
2018-07-15T14:52:03.815Z,100047.00
2018-07-15T14:57:06.996Z,100043.00
2018-07-15T15:02:10.029Z,100043.00
2018-07-15T15:07:13.041Z,100025.00
2018-07-15T15:12:16.174Z,100030.00
2018-07-15T15:17:19.241Z,100034.00
2018-07-15T15:22:22.318Z,100043.00
2018-07-15T15:27:25.454Z,100045.00
2018-07-15T15:32:28.807Z,100054.00
2018-07-15T15:37:31.872Z,100047.00
2018-07-15T15:42:34.929Z,100041.00
2018-07-15T15:47:37.945Z,100037.00
2018-07-15T15:52:40.981Z,100044.00
2018-07-15T15:57:44.177Z,100042.00
2018-07-15T16:02:47.675Z,100050.00
2018-07-15T16:07:51.018Z,100047.00
2018-07-15T16:12:54.127Z,100043.00
2018-07-15T16:17:57.199Z,100031.00
2018-07-15T16:23:00.292Z,100030.00
2018-07-15T16:28:03.587Z,100029.00
2018-07-15T16:33:06.770Z,100041.00
2018-07-15T16:38:09.827Z,100043.00
2018-07-15T16:43:15.490Z,100062.00
2018-07-15T16:48:19.218Z,100075.00
2018-07-15T16:53:22.763Z,100075.00
2018-07-15T16:58:26.264Z,100082.00
2018-07-15T17:03:29.849Z,100086.00
2018-07-15T17:08:33.322Z,100080.00
2018-07-15T17:13:36.756Z,100076.00
2018-07-15T17:18:40.213Z,100069.00
2018-07-15T17:23:43.680Z,100060.00
2018-07-15T17:28:47.240Z,100062.00
2018-07-15T17:33:50.889Z,100073.00
2018-07-15T17:38:54.598Z,100076.00
2018-07-15T17:43:58.453Z,100070.00
2018-07-15T17:49:02.166Z,100078.00
2018-07-15T17:54:05.890Z,100089.00
2018-07-15T17:59:09.895Z,100099.00
2018-07-15T18:04:13.486Z,100103.00
2018-07-15T18:09:16.938Z,100101.00
2018-07-15T18:14:20.691Z,100101.00
2018-07-15T18:19:24.127Z,100099.00
2018-07-15T18:24:27.628Z,100090.00
2018-07-15T18:29:31.668Z,100083.00
2018-07-15T18:34:35.610Z,100057.00
2018-07-15T18:39:39.237Z,100055.00
2018-07-15T18:44:42.895Z,100053.00
2018-07-15T18:49:46.762Z,100050.00
2018-07-15T18:54:50.492Z,100050.00
2018-07-15T18:59:54.344Z,100050.00
2018-07-15T19:04:58.054Z,100040.00
2018-07-15T19:10:01.713Z,100038.00
2018-07-15T19:15:05.729Z,100047.00
2018-07-15T19:20:09.389Z,100052.00
2018-07-15T19:25:13.043Z,100061.00
2018-07-15T19:30:16.562Z,100068.00
2018-07-15T19:35:20.282Z,100063.00
2018-07-15T19:40:24.268Z,100070.00
2018-07-15T19:45:27.795Z,100067.00
2018-07-15T19:50:31.529Z,100064.00
2018-07-15T19:55:34.932Z,100073.00
2018-07-15T20:00:38.641Z,100075.00
2018-07-15T20:05:42.303Z,100077.00
2018-07-15T20:10:46.022Z,100091.00
2018-07-15T20:15:49.795Z,100075.00
2018-07-15T20:20:53.447Z,100080.00
2018-07-15T20:25:57.069Z,100080.00
2018-07-15T20:31:00.884Z,100067.00
2018-07-15T20:36:04.737Z,100070.00
2018-07-15T20:41:08.702Z,100065.00
2018-07-15T20:46:12.156Z,100085.00
2018-07-15T20:51:15.783Z,100070.00
2018-07-15T20:56:19.576Z,100066.00
2018-07-15T21:01:23.005Z,100064.00
2018-07-15T21:06:26.583Z,100043.00
2018-07-15T21:11:30.171Z,100055.00
2018-07-15T21:16:33.929Z,100061.00
2018-07-15T21:21:37.440Z,100057.00
2018-07-15T21:26:41.108Z,100057.00
2018-07-15T21:31:44.830Z,100062.00
2018-07-15T21:36:48.514Z,100063.00
2018-07-15T21:41:52.349Z,100051.00
2018-07-15T21:46:55.823Z,100053.00
2018-07-15T21:51:59.827Z,100062.00
2018-07-15T21:57:03.551Z,100058.00
2018-07-15T22:02:07.425Z,100063.00
2018-07-15T22:07:28.156Z,100061.00
2018-07-15T22:12:31.597Z,100074.00
2018-07-15T22:17:35.134Z,100077.00
2018-07-15T22:22:38.965Z,100076.00
2018-07-15T22:27:42.547Z,100065.00
2018-07-15T22:32:46.571Z,100061.00
2018-07-15T22:37:50.433Z,100065.00
2018-07-15T22:42:54.214Z,100069.00
2018-07-15T22:47:57.739Z,100087.00
2018-07-15T22:53:01.111Z,100083.00
2018-07-15T22:58:04.882Z,100066.00
2018-07-15T23:03:08.624Z,100064.00
2018-07-15T23:08:12.284Z,100067.00
2018-07-15T23:13:16.383Z,100082.00
2018-07-15T23:18:20.061Z,100090.00
2018-07-15T23:23:23.508Z,100095.00
2018-07-15T23:28:26.882Z,100093.00
2018-07-15T23:33:30.612Z,100099.00
2018-07-15T23:38:34.115Z,100115.00
2018-07-15T23:43:37.761Z,100119.00
2018-07-15T23:48:41.443Z,100119.00
2018-07-15T23:53:45.092Z,100130.00
2018-07-15T23:58:48.429Z,100127.00
